Placido Castro, Brazil
Current Conditions -  °F | °C
As of 12:00 PM on Thursday 18 Dec 2014 (Local Time) from SBRB Reporting Station
Rain Showers Rain Showers  
Wind Chill: 86°   Ceiling: 2500
Heat Index: 93°   Visibility: 6mi
Dew Point: 73°   Wind: 8mph
Humidity: 66%   Direction: 290°WNW
Pressure: 29.8"   Gusts: NA
Location:  10.33°S, 67.18°W
Report Text: SBRB 181700Z 29007KT 9999 VCSH BKN025 FEW030TCU 30/23 Q1009
Loading
Personal Weather Stations






























Interactive Weather Map New forecast layout! Learn more

10-Day Weather Forecast

Advertisements
Track Severe Weather on mobile